sensor_id;sensor_type;location;lat;lon;timestamp;P1;durP1;ratioP1;P2;durP2;ratioP2
6185;SDS011;3126;52.738;8.316;2022-09-27T00:03:00;17.58;;;10.07;;
6185;SDS011;3126;52.738;8.316;2022-09-27T00:08:01;18.50;;;10.98;;
6185;SDS011;3126;52.738;8.316;2022-09-27T00:13:02;13.85;;;9.90;;
6185;SDS011;3126;52.738;8.316;2022-09-27T00:18:03;15.27;;;10.45;;
6185;SDS011;3126;52.738;8.316;2022-09-27T00:23:03;13.52;;;7.47;;
6185;SDS011;3126;52.738;8.316;2022-09-27T00:28:04;15.93;;;8.75;;
6185;SDS011;3126;52.738;8.316;2022-09-27T00:33:04;16.90;;;8.32;;
6185;SDS011;3126;52.738;8.316;2022-09-27T00:38:05;16.63;;;8.38;;
6185;SDS011;3126;52.738;8.316;2022-09-27T00:43:13;13.82;;;7.55;;
6185;SDS011;3126;52.738;8.316;2022-09-27T00:48:17;14.75;;;7.53;;
6185;SDS011;3126;52.738;8.316;2022-09-27T00:53:41;10.27;;;6.88;;
6185;SDS011;3126;52.738;8.316;2022-09-27T00:58:52;12.93;;;6.43;;
6185;SDS011;3126;52.738;8.316;2022-09-27T01:04:02;11.73;;;6.28;;
6185;SDS011;3126;52.738;8.316;2022-09-27T01:09:09;15.25;;;7.13;;
6185;SDS011;3126;52.738;8.316;2022-09-27T01:35:28;10.32;;;4.07;;
6185;SDS011;3126;52.738;8.316;2022-09-27T01:40:49;8.25;;;4.03;;
6185;SDS011;3126;52.738;8.316;2022-09-27T01:46:11;9.48;;;3.30;;
6185;SDS011;3126;52.738;8.316;2022-09-27T01:51:22;5.82;;;2.50;;
6185;SDS011;3126;52.738;8.316;2022-09-27T01:56:33;7.90;;;2.88;;
6185;SDS011;3126;52.738;8.316;2022-09-27T02:01:38;5.53;;;2.22;;
6185;SDS011;3126;52.738;8.316;2022-09-27T02:06:44;3.78;;;2.65;;
6185;SDS011;3126;52.738;8.316;2022-09-27T02:11:49;8.10;;;2.85;;
6185;SDS011;3126;52.738;8.316;2022-09-27T02:16:58;7.63;;;3.60;;
6185;SDS011;3126;52.738;8.316;2022-09-27T02:27:23;8.77;;;3.08;;
6185;SDS011;3126;52.738;8.316;2022-09-27T02:32:28;10.25;;;3.25;;
6185;SDS011;3126;52.738;8.316;2022-09-27T02:37:29;7.72;;;3.67;;
6185;SDS011;3126;52.738;8.316;2022-09-27T02:42:30;4.53;;;2.90;;
6185;SDS011;3126;52.738;8.316;2022-09-27T03:09:16;6.43;;;2.78;;
6185;SDS011;3126;52.738;8.316;2022-09-27T03:14:21;6.45;;;2.08;;
6185;SDS011;3126;52.738;8.316;2022-09-27T03:19:21;6.97;;;2.55;;
6185;SDS011;3126;52.738;8.316;2022-09-27T03:24:23;4.95;;;2.05;;
6185;SDS011;3126;52.738;8.316;2022-09-27T03:29:23;4.97;;;3.28;;
6185;SDS011;3126;52.738;8.316;2022-09-27T03:34:24;8.88;;;2.95;;
6185;SDS011;3126;52.738;8.316;2022-09-27T03:39:24;5.57;;;2.97;;
6185;SDS011;3126;52.738;8.316;2022-09-27T03:44:25;6.97;;;3.35;;
6185;SDS011;3126;52.738;8.316;2022-09-27T03:49:26;11.00;;;3.10;;
6185;SDS011;3126;52.738;8.316;2022-09-27T03:54:26;8.75;;;2.85;;
6185;SDS011;3126;52.738;8.316;2022-09-27T03:59:27;3.13;;;2.20;;
6185;SDS011;3126;52.738;8.316;2022-09-27T04:04:28;7.30;;;2.15;;
6185;SDS011;3126;52.738;8.316;2022-09-27T04:09:28;4.63;;;2.33;;
6185;SDS011;3126;52.738;8.316;2022-09-27T04:14:29;6.43;;;2.15;;
6185;SDS011;3126;52.738;8.316;2022-09-27T04:19:29;6.35;;;2.30;;
6185;SDS011;3126;52.738;8.316;2022-09-27T04:24:30;5.88;;;2.28;;
6185;SDS011;3126;52.738;8.316;2022-09-27T04:29:31;5.10;;;2.05;;
6185;SDS011;3126;52.738;8.316;2022-09-27T04:34:32;9.10;;;4.60;;
6185;SDS011;3126;52.738;8.316;2022-09-27T04:39:52;9.18;;;3.63;;
6185;SDS011;3126;52.738;8.316;2022-09-27T04:44:52;6.90;;;1.95;;
6185;SDS011;3126;52.738;8.316;2022-09-27T04:49:53;4.32;;;2.05;;
6185;SDS011;3126;52.738;8.316;2022-09-27T04:54:53;4.57;;;2.85;;
6185;SDS011;3126;52.738;8.316;2022-09-27T04:59:54;6.55;;;2.92;;
6185;SDS011;3126;52.738;8.316;2022-09-27T05:04:55;3.17;;;2.55;;
6185;SDS011;3126;52.738;8.316;2022-09-27T05:09:57;6.38;;;2.10;;
6185;SDS011;3126;52.738;8.316;2022-09-27T05:14:58;6.97;;;4.18;;
6185;SDS011;3126;52.738;8.316;2022-09-27T05:19:59;4.53;;;2.55;;
6185;SDS011;3126;52.738;8.316;2022-09-27T05:24:59;4.63;;;2.30;;
6185;SDS011;3126;52.738;8.316;2022-09-27T05:30:00;8.80;;;1.80;;
6185;SDS011;3126;52.738;8.316;2022-09-27T05:35:00;3.58;;;2.00;;
6185;SDS011;3126;52.738;8.316;2022-09-27T05:40:01;3.25;;;2.28;;
6185;SDS011;3126;52.738;8.316;2022-09-27T05:45:02;5.22;;;1.85;;
6185;SDS011;3126;52.738;8.316;2022-09-27T05:50:03;2.47;;;0.90;;
6185;SDS011;3126;52.738;8.316;2022-09-27T05:55:08;5.68;;;1.15;;
6185;SDS011;3126;52.738;8.316;2022-09-27T06:00:10;4.30;;;0.93;;
6185;SDS011;3126;52.738;8.316;2022-09-27T06:05:10;4.10;;;1.20;;
6185;SDS011;3126;52.738;8.316;2022-09-27T06:10:11;3.53;;;1.00;;
6185;SDS011;3126;52.738;8.316;2022-09-27T06:15:12;4.30;;;1.50;;
6185;SDS011;3126;52.738;8.316;2022-09-27T06:20:13;4.40;;;1.10;;
6185;SDS011;3126;52.738;8.316;2022-09-27T06:25:14;3.90;;;1.10;;
6185;SDS011;3126;52.738;8.316;2022-09-27T06:30:15;2.13;;;0.88;;
6185;SDS011;3126;52.738;8.316;2022-09-27T06:35:15;11.15;;;5.07;;
6185;SDS011;3126;52.738;8.316;2022-09-27T06:40:16;2.30;;;1.42;;
6185;SDS011;3126;52.738;8.316;2022-09-27T06:45:17;2.45;;;1.10;;
6185;SDS011;3126;52.738;8.316;2022-09-27T06:50:18;8.05;;;1.65;;
6185;SDS011;3126;52.738;8.316;2022-09-27T06:55:18;2.42;;;1.67;;
6185;SDS011;3126;52.738;8.316;2022-09-27T07:00:19;1.25;;;0.77;;
6185;SDS011;3126;52.738;8.316;2022-09-27T07:05:22;4.80;;;0.75;;
6185;SDS011;3126;52.738;8.316;2022-09-27T07:10:25;2.67;;;0.70;;
6185;SDS011;3126;52.738;8.316;2022-09-27T07:15:27;4.45;;;1.48;;
6185;SDS011;3126;52.738;8.316;2022-09-27T07:20:28;1.92;;;1.10;;
6185;SDS011;3126;52.738;8.316;2022-09-27T07:25:29;2.20;;;1.10;;
6185;SDS011;3126;52.738;8.316;2022-09-27T07:30:30;5.97;;;2.70;;
6185;SDS011;3126;52.738;8.316;2022-09-27T07:35:32;3.75;;;1.13;;
6185;SDS011;3126;52.738;8.316;2022-09-27T07:40:34;2.17;;;1.10;;
6185;SDS011;3126;52.738;8.316;2022-09-27T07:45:35;2.95;;;0.82;;
6185;SDS011;3126;52.738;8.316;2022-09-27T07:50:36;3.00;;;0.95;;
6185;SDS011;3126;52.738;8.316;2022-09-27T07:55:37;3.50;;;0.90;;
6185;SDS011;3126;52.738;8.316;2022-09-27T08:00:38;1.85;;;1.17;;
6185;SDS011;3126;52.738;8.316;2022-09-27T08:05:39;2.75;;;1.58;;
6185;SDS011;3126;52.738;8.316;2022-09-27T08:10:41;2.10;;;1.20;;
6185;SDS011;3126;52.738;8.316;2022-09-27T08:15:43;4.43;;;1.08;;
6185;SDS011;3126;52.738;8.316;2022-09-27T08:20:44;1.98;;;1.88;;
6185;SDS011;3126;52.738;8.316;2022-09-27T08:25:50;2.45;;;1.02;;
6185;SDS011;3126;52.738;8.316;2022-09-27T08:30:52;2.63;;;1.10;;
6185;SDS011;3126;52.738;8.316;2022-09-27T08:35:53;3.17;;;0.90;;
6185;SDS011;3126;52.738;8.316;2022-09-27T08:40:58;1.17;;;1.08;;
6185;SDS011;3126;52.738;8.316;2022-09-27T08:51:12;2.58;;;1.00;;
6185;SDS011;3126;52.738;8.316;2022-09-27T08:56:14;1.80;;;0.93;;
6185;SDS011;3126;52.738;8.316;2022-09-27T09:01:20;5.63;;;2.63;;
6185;SDS011;3126;52.738;8.316;2022-09-27T09:06:21;2.75;;;1.73;;
6185;SDS011;3126;52.738;8.316;2022-09-27T09:33:29;5.13;;;2.17;;
6185;SDS011;3126;52.738;8.316;2022-09-27T09:43:50;1.92;;;1.00;;
6185;SDS011;3126;52.738;8.316;2022-09-27T09:49:03;1.67;;;1.30;;
6185;SDS011;3126;52.738;8.316;2022-09-27T09:54:15;5.90;;;1.73;;
6185;SDS011;3126;52.738;8.316;2022-09-27T09:59:32;3.13;;;1.30;;
6185;SDS011;3126;52.738;8.316;2022-09-27T10:04:38;1.25;;;1.08;;
6185;SDS011;3126;52.738;8.316;2022-09-27T10:09:38;3.55;;;1.40;;
6185;SDS011;3126;52.738;8.316;2022-09-27T10:14:39;5.38;;;1.40;;
6185;SDS011;3126;52.738;8.316;2022-09-27T10:19:41;2.58;;;1.00;;
6185;SDS011;3126;52.738;8.316;2022-09-27T10:25:03;3.78;;;1.30;;
6185;SDS011;3126;52.738;8.316;2022-09-27T10:30:19;3.42;;;1.23;;
6185;SDS011;3126;52.738;8.316;2022-09-27T10:40:35;3.05;;;1.52;;
6185;SDS011;3126;52.738;8.316;2022-09-27T10:45:36;2.70;;;1.20;;
6185;SDS011;3126;52.738;8.316;2022-09-27T10:50:37;1.98;;;0.80;;
6185;SDS011;3126;52.738;8.316;2022-09-27T10:55:40;3.58;;;1.35;;
6185;SDS011;3126;52.738;8.316;2022-09-27T11:00:53;3.20;;;1.67;;
6185;SDS011;3126;52.738;8.316;2022-09-27T11:11:40;6.72;;;3.95;;
6185;SDS011;3126;52.738;8.316;2022-09-27T11:57:24;3.50;;;1.70;;
6185;SDS011;3126;52.738;8.316;2022-09-27T12:12:53;2.55;;;0.80;;
6185;SDS011;3126;52.738;8.316;2022-09-27T12:18:01;0.57;;;0.50;;
6185;SDS011;3126;52.738;8.316;2022-09-27T12:23:21;1.08;;;0.55;;
6185;SDS011;3126;52.738;8.316;2022-09-27T12:28:47;1.75;;;1.05;;
6185;SDS011;3126;52.738;8.316;2022-09-27T12:33:54;3.50;;;1.00;;
6185;SDS011;3126;52.738;8.316;2022-09-27T12:39:09;2.25;;;1.10;;
6185;SDS011;3126;52.738;8.316;2022-09-27T12:44:27;0.90;;;0.77;;
6185;SDS011;3126;52.738;8.316;2022-09-27T12:54:59;2.22;;;1.00;;
6185;SDS011;3126;52.738;8.316;2022-09-27T13:00:13;2.35;;;1.17;;
6185;SDS011;3126;52.738;8.316;2022-09-27T13:10:45;1.67;;;0.88;;
6185;SDS011;3126;52.738;8.316;2022-09-27T13:15:55;1.27;;;0.60;;
6185;SDS011;3126;52.738;8.316;2022-09-27T13:20:58;0.20;;;0.20;;
6185;SDS011;3126;52.738;8.316;2022-09-27T13:25:59;0.55;;;0.20;;
6185;SDS011;3126;52.738;8.316;2022-09-27T13:31:09;1.27;;;0.50;;
6185;SDS011;3126;52.738;8.316;2022-09-27T13:41:23;2.35;;;0.50;;
6185;SDS011;3126;52.738;8.316;2022-09-27T13:46:24;2.03;;;1.92;;
6185;SDS011;3126;52.738;8.316;2022-09-27T14:01:41;1.33;;;1.10;;
6185;SDS011;3126;52.738;8.316;2022-09-27T14:06:59;0.98;;;0.82;;
6185;SDS011;3126;52.738;8.316;2022-09-27T14:12:02;1.35;;;0.60;;
6185;SDS011;3126;52.738;8.316;2022-09-27T14:17:09;1.55;;;0.68;;
6185;SDS011;3126;52.738;8.316;2022-09-27T14:22:14;1.33;;;0.40;;
6185;SDS011;3126;52.738;8.316;2022-09-27T14:27:20;1.73;;;0.55;;
6185;SDS011;3126;52.738;8.316;2022-09-27T14:32:28;2.47;;;0.80;;
6185;SDS011;3126;52.738;8.316;2022-09-27T14:37:36;1.20;;;0.77;;
6185;SDS011;3126;52.738;8.316;2022-09-27T14:42:37;3.15;;;0.90;;
6185;SDS011;3126;52.738;8.316;2022-09-27T14:47:43;2.60;;;0.70;;
6185;SDS011;3126;52.738;8.316;2022-09-27T14:52:45;3.30;;;0.93;;
6185;SDS011;3126;52.738;8.316;2022-09-27T14:57:52;1.13;;;1.02;;
6185;SDS011;3126;52.738;8.316;2022-09-27T15:02:54;0.52;;;0.50;;
6185;SDS011;3126;52.738;8.316;2022-09-27T15:07:58;1.73;;;0.60;;
6185;SDS011;3126;52.738;8.316;2022-09-27T15:13:04;1.10;;;0.60;;
6185;SDS011;3126;52.738;8.316;2022-09-27T15:23:27;1.05;;;0.63;;
6185;SDS011;3126;52.738;8.316;2022-09-27T15:28:34;0.77;;;0.65;;
6185;SDS011;3126;52.738;8.316;2022-09-27T15:33:38;2.25;;;1.00;;
6185;SDS011;3126;52.738;8.316;2022-09-27T15:38:40;1.00;;;1.00;;
6185;SDS011;3126;52.738;8.316;2022-09-27T15:43:47;1.20;;;0.90;;
6185;SDS011;3126;52.738;8.316;2022-09-27T15:54:30;1.85;;;1.40;;
6185;SDS011;3126;52.738;8.316;2022-09-27T15:59:34;1.50;;;1.30;;
6185;SDS011;3126;52.738;8.316;2022-09-27T16:04:35;1.60;;;1.10;;
6185;SDS011;3126;52.738;8.316;2022-09-27T16:09:35;3.88;;;1.95;;
6185;SDS011;3126;52.738;8.316;2022-09-27T16:14:37;3.45;;;2.53;;
6185;SDS011;3126;52.738;8.316;2022-09-27T16:19:37;2.25;;;1.52;;
6185;SDS011;3126;52.738;8.316;2022-09-27T16:24:38;15.10;;;4.80;;
6185;SDS011;3126;52.738;8.316;2022-09-27T16:29:38;11.30;;;4.68;;
6185;SDS011;3126;52.738;8.316;2022-09-27T16:34:40;14.15;;;6.32;;
6185;SDS011;3126;52.738;8.316;2022-09-27T16:39:41;6.10;;;4.15;;
6185;SDS011;3126;52.738;8.316;2022-09-27T16:44:41;3.75;;;1.95;;
6185;SDS011;3126;52.738;8.316;2022-09-27T16:49:43;1.48;;;1.38;;
6185;SDS011;3126;52.738;8.316;2022-09-27T16:55:03;3.45;;;2.63;;
6185;SDS011;3126;52.738;8.316;2022-09-27T17:00:06;2.33;;;2.15;;
6185;SDS011;3126;52.738;8.316;2022-09-27T17:05:07;2.97;;;2.30;;
6185;SDS011;3126;52.738;8.316;2022-09-27T17:10:08;3.10;;;1.63;;
6185;SDS011;3126;52.738;8.316;2022-09-27T17:15:09;3.67;;;2.33;;
6185;SDS011;3126;52.738;8.316;2022-09-27T17:20:10;3.97;;;2.05;;
6185;SDS011;3126;52.738;8.316;2022-09-27T17:25:11;2.30;;;1.70;;
6185;SDS011;3126;52.738;8.316;2022-09-27T17:30:12;2.35;;;1.85;;
6185;SDS011;3126;52.738;8.316;2022-09-27T17:35:13;2.92;;;1.85;;
6185;SDS011;3126;52.738;8.316;2022-09-27T17:40:14;2.13;;;1.50;;
6185;SDS011;3126;52.738;8.316;2022-09-27T17:45:16;2.47;;;2.28;;
6185;SDS011;3126;52.738;8.316;2022-09-27T17:50:17;4.55;;;2.38;;
6185;SDS011;3126;52.738;8.316;2022-09-27T17:55:24;3.00;;;2.33;;
6185;SDS011;3126;52.738;8.316;2022-09-27T18:00:25;4.80;;;2.53;;
6185;SDS011;3126;52.738;8.316;2022-09-27T18:05:27;8.05;;;4.00;;
6185;SDS011;3126;52.738;8.316;2022-09-27T18:10:28;8.65;;;5.10;;
6185;SDS011;3126;52.738;8.316;2022-09-27T18:15:29;6.18;;;5.05;;
6185;SDS011;3126;52.738;8.316;2022-09-27T18:20:33;5.65;;;3.97;;
6185;SDS011;3126;52.738;8.316;2022-09-27T18:25:34;4.10;;;3.25;;
6185;SDS011;3126;52.738;8.316;2022-09-27T18:30:39;3.08;;;2.78;;
6185;SDS011;3126;52.738;8.316;2022-09-27T18:35:39;4.60;;;2.90;;
6185;SDS011;3126;52.738;8.316;2022-09-27T18:40:40;4.82;;;3.95;;
6185;SDS011;3126;52.738;8.316;2022-09-27T18:45:40;7.07;;;5.57;;
6185;SDS011;3126;52.738;8.316;2022-09-27T18:50:41;5.80;;;5.30;;
6185;SDS011;3126;52.738;8.316;2022-09-27T18:55:44;5.13;;;4.68;;
6185;SDS011;3126;52.738;8.316;2022-09-27T19:00:45;12.48;;;5.88;;
6185;SDS011;3126;52.738;8.316;2022-09-27T19:05:52;5.43;;;3.72;;
6185;SDS011;3126;52.738;8.316;2022-09-27T19:10:53;4.25;;;2.78;;
6185;SDS011;3126;52.738;8.316;2022-09-27T19:15:55;3.35;;;2.30;;
6185;SDS011;3126;52.738;8.316;2022-09-27T19:21:10;3.38;;;2.97;;
6185;SDS011;3126;52.738;8.316;2022-09-27T19:26:13;5.57;;;2.97;;
6185;SDS011;3126;52.738;8.316;2022-09-27T19:31:18;3.20;;;2.88;;
6185;SDS011;3126;52.738;8.316;2022-09-27T19:36:20;4.70;;;4.13;;
6185;SDS011;3126;52.738;8.316;2022-09-27T19:41:21;5.25;;;4.75;;
6185;SDS011;3126;52.738;8.316;2022-09-27T19:46:22;4.88;;;4.47;;
6185;SDS011;3126;52.738;8.316;2022-09-27T19:51:24;6.35;;;4.32;;
6185;SDS011;3126;52.738;8.316;2022-09-27T19:56:26;7.25;;;4.40;;
6185;SDS011;3126;52.738;8.316;2022-09-27T20:01:27;5.22;;;4.05;;
6185;SDS011;3126;52.738;8.316;2022-09-27T20:06:28;4.32;;;3.13;;
6185;SDS011;3126;52.738;8.316;2022-09-27T20:11:30;8.63;;;3.28;;
6185;SDS011;3126;52.738;8.316;2022-09-27T20:16:32;4.90;;;4.32;;
6185;SDS011;3126;52.738;8.316;2022-09-27T20:21:34;5.95;;;4.55;;
6185;SDS011;3126;52.738;8.316;2022-09-27T20:26:35;7.75;;;4.68;;
6185;SDS011;3126;52.738;8.316;2022-09-27T20:31:37;6.32;;;4.70;;
6185;SDS011;3126;52.738;8.316;2022-09-27T20:36:42;7.60;;;4.70;;
6185;SDS011;3126;52.738;8.316;2022-09-27T20:41:44;7.15;;;4.45;;
6185;SDS011;3126;52.738;8.316;2022-09-27T20:46:45;5.13;;;3.10;;
6185;SDS011;3126;52.738;8.316;2022-09-27T20:51:47;3.75;;;2.95;;
6185;SDS011;3126;52.738;8.316;2022-09-27T20:56:47;5.25;;;4.32;;
6185;SDS011;3126;52.738;8.316;2022-09-27T21:01:49;6.18;;;4.43;;
6185;SDS011;3126;52.738;8.316;2022-09-27T21:06:50;5.82;;;3.97;;
6185;SDS011;3126;52.738;8.316;2022-09-27T21:11:51;3.95;;;3.35;;
6185;SDS011;3126;52.738;8.316;2022-09-27T21:16:52;3.63;;;3.25;;
6185;SDS011;3126;52.738;8.316;2022-09-27T21:21:53;4.50;;;3.60;;
6185;SDS011;3126;52.738;8.316;2022-09-27T21:26:54;4.60;;;3.75;;
6185;SDS011;3126;52.738;8.316;2022-09-27T21:31:57;4.57;;;3.40;;
6185;SDS011;3126;52.738;8.316;2022-09-27T21:36:57;4.47;;;3.42;;
6185;SDS011;3126;52.738;8.316;2022-09-27T21:41:58;2.97;;;2.75;;
6185;SDS011;3126;52.738;8.316;2022-09-27T21:46:59;4.05;;;3.15;;
6185;SDS011;3126;52.738;8.316;2022-09-27T21:51:59;5.07;;;3.60;;
6185;SDS011;3126;52.738;8.316;2022-09-27T21:57:00;5.25;;;3.47;;
6185;SDS011;3126;52.738;8.316;2022-09-27T22:02:01;3.78;;;2.90;;
6185;SDS011;3126;52.738;8.316;2022-09-27T22:07:02;3.95;;;3.60;;
6185;SDS011;3126;52.738;8.316;2022-09-27T22:12:03;4.88;;;3.80;;
6185;SDS011;3126;52.738;8.316;2022-09-27T22:17:05;5.88;;;4.70;;
6185;SDS011;3126;52.738;8.316;2022-09-27T22:22:06;9.07;;;5.97;;
6185;SDS011;3126;52.738;8.316;2022-09-27T22:27:06;9.38;;;5.43;;
6185;SDS011;3126;52.738;8.316;2022-09-27T22:32:07;6.97;;;5.95;;
6185;SDS011;3126;52.738;8.316;2022-09-27T22:37:08;10.07;;;6.07;;
6185;SDS011;3126;52.738;8.316;2022-09-27T22:42:09;5.75;;;4.97;;
6185;SDS011;3126;52.738;8.316;2022-09-27T22:47:10;9.02;;;4.70;;
6185;SDS011;3126;52.738;8.316;2022-09-27T22:52:12;6.45;;;5.30;;
6185;SDS011;3126;52.738;8.316;2022-09-27T22:57:13;9.73;;;4.47;;
6185;SDS011;3126;52.738;8.316;2022-09-27T23:02:14;3.83;;;3.53;;
6185;SDS011;3126;52.738;8.316;2022-09-27T23:07:14;5.28;;;4.18;;
6185;SDS011;3126;52.738;8.316;2022-09-27T23:12:15;5.22;;;4.53;;
6185;SDS011;3126;52.738;8.316;2022-09-27T23:17:16;6.70;;;4.07;;
6185;SDS011;3126;52.738;8.316;2022-09-27T23:22:19;5.20;;;4.15;;
6185;SDS011;3126;52.738;8.316;2022-09-27T23:27:19;5.25;;;4.75;;
6185;SDS011;3126;52.738;8.316;2022-09-27T23:32:39;6.13;;;4.20;;
6185;SDS011;3126;52.738;8.316;2022-09-27T23:37:43;5.28;;;4.35;;
6185;SDS011;3126;52.738;8.316;2022-09-27T23:42:44;4.88;;;4.22;;
6185;SDS011;3126;52.738;8.316;2022-09-27T23:47:44;7.38;;;4.50;;
6185;SDS011;3126;52.738;8.316;2022-09-27T23:52:45;4.88;;;4.05;;
6185;SDS011;3126;52.738;8.316;2022-09-27T23:57:45;5.85;;;4.78;;
